sensor_id;sensor_type;location;lat;lon;timestamp;temperature;humidity
17994;DHT22;9122;48.406;9.984;2024-03-07T00:00:07;7.00;99.90
17994;DHT22;9122;48.406;9.984;2024-03-07T00:02:58;7.00;99.90
17994;DHT22;9122;48.406;9.984;2024-03-07T00:11:14;6.90;99.90
17994;DHT22;9122;48.406;9.984;2024-03-07T00:13:58;6.50;99.90
17994;DHT22;9122;48.406;9.984;2024-03-07T00:16:43;6.90;99.90
17994;DHT22;9122;48.406;9.984;2024-03-07T00:19:30;6.90;99.90
17994;DHT22;9122;48.406;9.984;2024-03-07T00:22:15;6.90;99.90
17994;DHT22;9122;48.406;9.984;2024-03-07T00:25:00;6.90;99.90
17994;DHT22;9122;48.406;9.984;2024-03-07T00:33:14;6.90;99.90
17994;DHT22;9122;48.406;9.984;2024-03-07T00:35:59;6.80;99.90
17994;DHT22;9122;48.406;9.984;2024-03-07T00:41:29;6.80;99.90
17994;DHT22;9122;48.406;9.984;2024-03-07T00:44:14;7.10;99.90
17994;DHT22;9122;48.406;9.984;2024-03-07T00:46:58;8.40;99.90
17994;DHT22;9122;48.406;9.984;2024-03-07T00:49:43;6.70;99.90
17994;DHT22;9122;48.406;9.984;2024-03-07T00:52:27;7.80;99.90
17994;DHT22;9122;48.406;9.984;2024-03-07T00:55:12;6.60;99.90
17994;DHT22;9122;48.406;9.984;2024-03-07T01:00:40;6.70;99.90
17994;DHT22;9122;48.406;9.984;2024-03-07T01:03:27;6.60;99.90
17994;DHT22;9122;48.406;9.984;2024-03-07T01:06:11;6.60;99.90
17994;DHT22;9122;48.406;9.984;2024-03-07T01:08:56;6.60;99.90
17994;DHT22;9122;48.406;9.984;2024-03-07T01:11:42;6.60;99.90
17994;DHT22;9122;48.406;9.984;2024-03-07T01:14:27;6.60;99.90
17994;DHT22;9122;48.406;9.984;2024-03-07T01:17:12;6.50;99.90
17994;DHT22;9122;48.406;9.984;2024-03-07T01:19:56;6.20;99.90
17994;DHT22;9122;48.406;9.984;2024-03-07T01:22:42;6.00;99.90
17994;DHT22;9122;48.406;9.984;2024-03-07T01:25:26;6.70;99.90
17994;DHT22;9122;48.406;9.984;2024-03-07T01:28:11;6.60;99.90
17994;DHT22;9122;48.406;9.984;2024-03-07T01:30:58;6.20;99.90
17994;DHT22;9122;48.406;9.984;2024-03-07T01:36:27;6.60;99.90
17994;DHT22;9122;48.406;9.984;2024-03-07T01:39:11;6.60;99.90
17994;DHT22;9122;48.406;9.984;2024-03-07T01:41:55;7.00;99.90
17994;DHT22;9122;48.406;9.984;2024-03-07T01:44:39;6.50;99.90
17994;DHT22;9122;48.406;9.984;2024-03-07T01:47:25;6.00;99.90
17994;DHT22;9122;48.406;9.984;2024-03-07T01:50:09;6.50;99.90
17994;DHT22;9122;48.406;9.984;2024-03-07T01:52:54;6.50;99.90
17994;DHT22;9122;48.406;9.984;2024-03-07T01:55:39;6.50;99.90
17994;DHT22;9122;48.406;9.984;2024-03-07T01:58:24;6.50;99.90
17994;DHT22;9122;48.406;9.984;2024-03-07T02:03:54;6.50;99.90
17994;DHT22;9122;48.406;9.984;2024-03-07T02:06:38;7.60;99.90
17994;DHT22;9122;48.406;9.984;2024-03-07T02:09:22;6.10;99.90
17994;DHT22;9122;48.406;9.984;2024-03-07T02:12:07;6.00;99.90
17994;DHT22;9122;48.406;9.984;2024-03-07T02:14:53;6.50;99.90
17994;DHT22;9122;48.406;9.984;2024-03-07T02:17:37;6.50;99.90
17994;DHT22;9122;48.406;9.984;2024-03-07T02:20:22;6.00;99.90
17994;DHT22;9122;48.406;9.984;2024-03-07T02:23:09;7.60;99.90
17994;DHT22;9122;48.406;9.984;2024-03-07T02:25:53;7.50;99.90
17994;DHT22;9122;48.406;9.984;2024-03-07T02:28:37;6.40;99.90
17994;DHT22;9122;48.406;9.984;2024-03-07T02:31:22;6.40;99.90
17994;DHT22;9122;48.406;9.984;2024-03-07T02:34:19;6.40;99.90
17994;DHT22;9122;48.406;9.984;2024-03-07T02:37:03;7.00;99.90
17994;DHT22;9122;48.406;9.984;2024-03-07T02:39:48;6.40;99.90
17994;DHT22;9122;48.406;9.984;2024-03-07T02:42:32;6.40;99.90
17994;DHT22;9122;48.406;9.984;2024-03-07T02:45:17;6.40;99.90
17994;DHT22;9122;48.406;9.984;2024-03-07T02:48:02;7.30;99.90
17994;DHT22;9122;48.406;9.984;2024-03-07T02:50:46;6.40;99.90
17994;DHT22;9122;48.406;9.984;2024-03-07T02:53:31;6.40;99.90
17994;DHT22;9122;48.406;9.984;2024-03-07T02:56:16;7.00;99.90
17994;DHT22;9122;48.406;9.984;2024-03-07T02:59:00;5.90;99.90
17994;DHT22;9122;48.406;9.984;2024-03-07T03:04:29;6.20;99.90
17994;DHT22;9122;48.406;9.984;2024-03-07T03:07:14;6.20;99.90
17994;DHT22;9122;48.406;9.984;2024-03-07T03:09:58;5.60;99.90
17994;DHT22;9122;48.406;9.984;2024-03-07T03:12:42;7.70;99.90
17994;DHT22;9122;48.406;9.984;2024-03-07T03:15:26;6.00;99.90
17994;DHT22;9122;48.406;9.984;2024-03-07T03:18:11;5.70;99.90
17994;DHT22;9122;48.406;9.984;2024-03-07T03:20:56;6.10;99.90
17994;DHT22;9122;48.406;9.984;2024-03-07T03:23:41;6.20;99.90
17994;DHT22;9122;48.406;9.984;2024-03-07T03:29:10;6.00;99.90
17994;DHT22;9122;48.406;9.984;2024-03-07T03:31:56;6.00;99.90
17994;DHT22;9122;48.406;9.984;2024-03-07T03:34:40;6.00;99.90
17994;DHT22;9122;48.406;9.984;2024-03-07T03:37:26;6.80;99.90
17994;DHT22;9122;48.406;9.984;2024-03-07T03:40:11;6.00;99.90
17994;DHT22;9122;48.406;9.984;2024-03-07T03:42:59;5.90;99.90
17994;DHT22;9122;48.406;9.984;2024-03-07T03:45:43;5.80;99.90
17994;DHT22;9122;48.406;9.984;2024-03-07T03:48:28;5.90;99.90
17994;DHT22;9122;48.406;9.984;2024-03-07T03:51:12;5.90;99.90
17994;DHT22;9122;48.406;9.984;2024-03-07T03:53:57;6.90;99.90
17994;DHT22;9122;48.406;9.984;2024-03-07T03:56:41;5.50;99.90
17994;DHT22;9122;48.406;9.984;2024-03-07T03:59:25;5.80;99.90
17994;DHT22;9122;48.406;9.984;2024-03-07T04:02:09;6.20;99.90
17994;DHT22;9122;48.406;9.984;2024-03-07T04:04:53;6.20;99.90
17994;DHT22;9122;48.406;9.984;2024-03-07T04:07:37;5.60;99.90
17994;DHT22;9122;48.406;9.984;2024-03-07T04:10:22;6.10;99.90
17994;DHT22;9122;48.406;9.984;2024-03-07T04:15:51;5.70;99.90
17994;DHT22;9122;48.406;9.984;2024-03-07T04:18:36;5.30;99.90
17994;DHT22;9122;48.406;9.984;2024-03-07T04:21:20;5.30;99.90
17994;DHT22;9122;48.406;9.984;2024-03-07T04:24:05;6.80;99.90
17994;DHT22;9122;48.406;9.984;2024-03-07T04:26:49;5.60;99.90
17994;DHT22;9122;48.406;9.984;2024-03-07T04:29:34;5.30;99.90
17994;DHT22;9122;48.406;9.984;2024-03-07T04:32:18;5.50;99.90
17994;DHT22;9122;48.406;9.984;2024-03-07T04:35:04;6.70;99.90
17994;DHT22;9122;48.406;9.984;2024-03-07T04:37:52;5.50;99.90
17994;DHT22;9122;48.406;9.984;2024-03-07T04:40:37;5.50;99.90
17994;DHT22;9122;48.406;9.984;2024-03-07T04:43:22;5.50;99.90
17994;DHT22;9122;48.406;9.984;2024-03-07T04:46:06;5.50;99.90
17994;DHT22;9122;48.406;9.984;2024-03-07T04:54:21;5.40;99.90
17994;DHT22;9122;48.406;9.984;2024-03-07T04:57:05;4.90;99.90
17994;DHT22;9122;48.406;9.984;2024-03-07T04:59:49;4.90;99.90
17994;DHT22;9122;48.406;9.984;2024-03-07T05:02:34;7.30;99.90
17994;DHT22;9122;48.406;9.984;2024-03-07T05:05:18;4.90;99.90
17994;DHT22;9122;48.406;9.984;2024-03-07T05:10:50;5.20;99.90
17994;DHT22;9122;48.406;9.984;2024-03-07T05:13:36;5.30;99.90
17994;DHT22;9122;48.406;9.984;2024-03-07T05:16:21;5.20;99.90
17994;DHT22;9122;48.406;9.984;2024-03-07T05:19:06;6.30;99.90
17994;DHT22;9122;48.406;9.984;2024-03-07T05:21:52;5.80;99.90
17994;DHT22;9122;48.406;9.984;2024-03-07T05:24:37;4.80;99.90
17994;DHT22;9122;48.406;9.984;2024-03-07T05:27:21;5.10;99.90
17994;DHT22;9122;48.406;9.984;2024-03-07T05:30:06;4.60;99.90
17994;DHT22;9122;48.406;9.984;2024-03-07T05:32:55;5.10;99.90
17994;DHT22;9122;48.406;9.984;2024-03-07T05:35:40;5.10;99.90
17994;DHT22;9122;48.406;9.984;2024-03-07T05:38:24;4.80;99.90
17994;DHT22;9122;48.406;9.984;2024-03-07T05:41:12;5.10;99.90
17994;DHT22;9122;48.406;9.984;2024-03-07T05:43:56;5.10;99.90
17994;DHT22;9122;48.406;9.984;2024-03-07T05:46:41;5.00;99.90
17994;DHT22;9122;48.406;9.984;2024-03-07T05:49:30;4.90;99.90
17994;DHT22;9122;48.406;9.984;2024-03-07T05:54:59;5.00;99.90
17994;DHT22;9122;48.406;9.984;2024-03-07T05:57:43;4.90;99.90
17994;DHT22;9122;48.406;9.984;2024-03-07T06:00:28;5.00;99.90
17994;DHT22;9122;48.406;9.984;2024-03-07T06:03:13;4.90;99.90
17994;DHT22;9122;48.406;9.984;2024-03-07T06:06:00;4.50;99.90
17994;DHT22;9122;48.406;9.984;2024-03-07T06:11:30;4.90;99.90
17994;DHT22;9122;48.406;9.984;2024-03-07T06:14:14;4.90;99.90
17994;DHT22;9122;48.406;9.984;2024-03-07T06:16:58;4.90;99.90
17994;DHT22;9122;48.406;9.984;2024-03-07T06:19:43;4.60;99.90
17994;DHT22;9122;48.406;9.984;2024-03-07T06:22:27;4.50;99.90
17994;DHT22;9122;48.406;9.984;2024-03-07T06:25:12;4.50;99.90
17994;DHT22;9122;48.406;9.984;2024-03-07T06:28:04;4.50;99.90
17994;DHT22;9122;48.406;9.984;2024-03-07T06:33:46;4.80;99.90
17994;DHT22;9122;48.406;9.984;2024-03-07T06:39:16;4.80;99.90
17994;DHT22;9122;48.406;9.984;2024-03-07T06:42:00;4.40;99.90
17994;DHT22;9122;48.406;9.984;2024-03-07T06:44:45;4.90;99.90
17994;DHT22;9122;48.406;9.984;2024-03-07T06:47:30;4.40;99.90
17994;DHT22;9122;48.406;9.984;2024-03-07T06:50:14;4.80;99.90
17994;DHT22;9122;48.406;9.984;2024-03-07T06:53:04;4.90;99.90
17994;DHT22;9122;48.406;9.984;2024-03-07T06:55:50;4.80;99.90
17994;DHT22;9122;48.406;9.984;2024-03-07T06:58:37;4.90;99.90
17994;DHT22;9122;48.406;9.984;2024-03-07T07:01:21;5.80;99.90
17994;DHT22;9122;48.406;9.984;2024-03-07T07:04:07;4.80;99.90
17994;DHT22;9122;48.406;9.984;2024-03-07T07:06:53;6.20;99.90
17994;DHT22;9122;48.406;9.984;2024-03-07T07:09:37;4.30;99.90
17994;DHT22;9122;48.406;9.984;2024-03-07T07:12:21;4.60;99.90
17994;DHT22;9122;48.406;9.984;2024-03-07T07:15:05;4.80;99.90
17994;DHT22;9122;48.406;9.984;2024-03-07T07:17:50;4.80;99.90
17994;DHT22;9122;48.406;9.984;2024-03-07T07:23:20;4.70;99.90
17994;DHT22;9122;48.406;9.984;2024-03-07T07:28:49;4.80;99.90
17994;DHT22;9122;48.406;9.984;2024-03-07T07:31:35;4.90;99.90
17994;DHT22;9122;48.406;9.984;2024-03-07T07:34:19;4.80;99.90
17994;DHT22;9122;48.406;9.984;2024-03-07T07:37:05;4.80;99.90
17994;DHT22;9122;48.406;9.984;2024-03-07T07:39:49;5.70;99.90
17994;DHT22;9122;48.406;9.984;2024-03-07T07:42:33;4.30;99.90
17994;DHT22;9122;48.406;9.984;2024-03-07T07:45:18;4.70;99.90
17994;DHT22;9122;48.406;9.984;2024-03-07T07:48:03;4.80;99.90
17994;DHT22;9122;48.406;9.984;2024-03-07T07:50:49;4.70;99.90
17994;DHT22;9122;48.406;9.984;2024-03-07T07:53:35;4.60;99.90
17994;DHT22;9122;48.406;9.984;2024-03-07T07:56:20;4.70;99.90
17994;DHT22;9122;48.406;9.984;2024-03-07T08:01:49;4.70;99.90
17994;DHT22;9122;48.406;9.984;2024-03-07T08:04:34;4.30;99.90
17994;DHT22;9122;48.406;9.984;2024-03-07T08:07:18;6.10;99.90
17994;DHT22;9122;48.406;9.984;2024-03-07T08:10:02;5.00;99.90
17994;DHT22;9122;48.406;9.984;2024-03-07T08:12:47;4.80;99.90
17994;DHT22;9122;48.406;9.984;2024-03-07T08:15:32;4.40;99.90
17994;DHT22;9122;48.406;9.984;2024-03-07T08:21:01;4.70;99.90
17994;DHT22;9122;48.406;9.984;2024-03-07T08:23:45;4.70;99.90
17994;DHT22;9122;48.406;9.984;2024-03-07T08:26:30;4.70;99.90
17994;DHT22;9122;48.406;9.984;2024-03-07T08:29:22;5.80;99.90
17994;DHT22;9122;48.406;9.984;2024-03-07T08:32:07;4.70;99.90
17994;DHT22;9122;48.406;9.984;2024-03-07T08:34:51;4.50;99.90
17994;DHT22;9122;48.406;9.984;2024-03-07T08:37:36;5.70;99.90
17994;DHT22;9122;48.406;9.984;2024-03-07T08:40:22;5.90;99.90
17994;DHT22;9122;48.406;9.984;2024-03-07T08:43:06;5.70;99.90
17994;DHT22;9122;48.406;9.984;2024-03-07T08:45:51;4.40;99.90
17994;DHT22;9122;48.406;9.984;2024-03-07T08:48:35;4.70;99.90
17994;DHT22;9122;48.406;9.984;2024-03-07T08:51:19;4.40;99.90
17994;DHT22;9122;48.406;9.984;2024-03-07T08:54:04;4.80;99.90
17994;DHT22;9122;48.406;9.984;2024-03-07T08:56:49;6.50;99.90
17994;DHT22;9122;48.406;9.984;2024-03-07T08:59:33;4.90;99.90
17994;DHT22;9122;48.406;9.984;2024-03-07T09:05:03;4.80;99.90
17994;DHT22;9122;48.406;9.984;2024-03-07T09:07:48;4.80;99.90
17994;DHT22;9122;48.406;9.984;2024-03-07T09:10:33;4.50;99.90
17994;DHT22;9122;48.406;9.984;2024-03-07T09:13:17;4.80;99.90
17994;DHT22;9122;48.406;9.984;2024-03-07T09:16:01;4.80;99.90
17994;DHT22;9122;48.406;9.984;2024-03-07T09:21:33;4.90;99.90
17994;DHT22;9122;48.406;9.984;2024-03-07T09:24:18;4.90;99.90
17994;DHT22;9122;48.406;9.984;2024-03-07T09:27:05;4.50;99.90
17994;DHT22;9122;48.406;9.984;2024-03-07T09:29:50;4.90;99.90
17994;DHT22;9122;48.406;9.984;2024-03-07T09:32:34;4.90;99.90
17994;DHT22;9122;48.406;9.984;2024-03-07T09:35:18;4.80;99.90
17994;DHT22;9122;48.406;9.984;2024-03-07T09:38:03;4.90;99.90
17994;DHT22;9122;48.406;9.984;2024-03-07T09:40:48;5.10;99.90
17994;DHT22;9122;48.406;9.984;2024-03-07T09:43:33;6.00;99.90
17994;DHT22;9122;48.406;9.984;2024-03-07T09:46:18;5.40;99.90
17994;DHT22;9122;48.406;9.984;2024-03-07T09:49:03;4.50;99.90
17994;DHT22;9122;48.406;9.984;2024-03-07T09:51:51;5.00;99.90
17994;DHT22;9122;48.406;9.984;2024-03-07T09:57:24;5.00;99.90
17994;DHT22;9122;48.406;9.984;2024-03-07T10:00:10;4.60;99.90
17994;DHT22;9122;48.406;9.984;2024-03-07T10:03:06;5.10;99.90
17994;DHT22;9122;48.406;9.984;2024-03-07T10:05:52;4.60;99.90
17994;DHT22;9122;48.406;9.984;2024-03-07T10:08:37;4.80;99.90
17994;DHT22;9122;48.406;9.984;2024-03-07T10:11:22;5.00;99.90
17994;DHT22;9122;48.406;9.984;2024-03-07T10:16:55;5.10;99.90
17994;DHT22;9122;48.406;9.984;2024-03-07T10:19:41;5.10;99.90
17994;DHT22;9122;48.406;9.984;2024-03-07T10:22:25;5.70;99.90
17994;DHT22;9122;48.406;9.984;2024-03-07T10:25:13;4.60;99.90
17994;DHT22;9122;48.406;9.984;2024-03-07T10:27:57;6.40;99.90
17994;DHT22;9122;48.406;9.984;2024-03-07T10:30:42;6.30;99.90
17994;DHT22;9122;48.406;9.984;2024-03-07T10:33:29;5.10;99.90
17994;DHT22;9122;48.406;9.984;2024-03-07T10:36:16;5.10;99.90
17994;DHT22;9122;48.406;9.984;2024-03-07T10:39:02;4.70;99.90
17994;DHT22;9122;48.406;9.984;2024-03-07T10:42:00;5.10;99.90
17994;DHT22;9122;48.406;9.984;2024-03-07T10:44:50;5.10;99.90
17994;DHT22;9122;48.406;9.984;2024-03-07T10:47:38;5.10;99.90
17994;DHT22;9122;48.406;9.984;2024-03-07T10:53:29;5.20;99.90
17994;DHT22;9122;48.406;9.984;2024-03-07T10:59:41;5.20;99.90
17994;DHT22;9122;48.406;9.984;2024-03-07T11:02:46;4.80;99.90
17994;DHT22;9122;48.406;9.984;2024-03-07T11:05:30;5.30;99.90
17994;DHT22;9122;48.406;9.984;2024-03-07T11:08:16;5.00;99.90
17994;DHT22;9122;48.406;9.984;2024-03-07T11:11:01;5.40;99.90
17994;DHT22;9122;48.406;9.984;2024-03-07T11:13:46;5.50;99.90
17994;DHT22;9122;48.406;9.984;2024-03-07T11:16:32;5.80;99.90
17994;DHT22;9122;48.406;9.984;2024-03-07T11:19:27;5.80;99.90
17994;DHT22;9122;48.406;9.984;2024-03-07T11:22:31;5.40;99.90
17994;DHT22;9122;48.406;9.984;2024-03-07T11:25:20;5.20;99.90
17994;DHT22;9122;48.406;9.984;2024-03-07T11:28:05;5.50;99.90
17994;DHT22;9122;48.406;9.984;2024-03-07T11:30:50;7.40;99.90
17994;DHT22;9122;48.406;9.984;2024-03-07T11:33:37;7.20;99.90
17994;DHT22;9122;48.406;9.984;2024-03-07T11:36:49;5.60;99.90
17994;DHT22;9122;48.406;9.984;2024-03-07T11:39:50;5.60;99.90
17994;DHT22;9122;48.406;9.984;2024-03-07T11:42:37;5.70;99.90
17994;DHT22;9122;48.406;9.984;2024-03-07T11:48:09;5.70;99.90
17994;DHT22;9122;48.406;9.984;2024-03-07T11:50:54;5.70;99.90
17994;DHT22;9122;48.406;9.984;2024-03-07T11:53:39;5.70;99.90
17994;DHT22;9122;48.406;9.984;2024-03-07T11:56:24;5.70;99.90
17994;DHT22;9122;48.406;9.984;2024-03-07T11:59:08;6.00;99.90
17994;DHT22;9122;48.406;9.984;2024-03-07T12:01:57;6.80;99.90
17994;DHT22;9122;48.406;9.984;2024-03-07T12:04:45;5.30;99.90
17994;DHT22;9122;48.406;9.984;2024-03-07T12:07:30;5.80;99.90
17994;DHT22;9122;48.406;9.984;2024-03-07T12:10:15;6.00;99.90
17994;DHT22;9122;48.406;9.984;2024-03-07T12:12:59;5.80;99.90
17994;DHT22;9122;48.406;9.984;2024-03-07T12:15:45;5.90;99.90
17994;DHT22;9122;48.406;9.984;2024-03-07T12:18:30;5.90;99.90
17994;DHT22;9122;48.406;9.984;2024-03-07T12:21:15;5.90;99.90
17994;DHT22;9122;48.406;9.984;2024-03-07T12:24:11;5.90;99.90
17994;DHT22;9122;48.406;9.984;2024-03-07T12:29:50;5.90;99.90
17994;DHT22;9122;48.406;9.984;2024-03-07T12:32:36;5.90;99.90
17994;DHT22;9122;48.406;9.984;2024-03-07T12:35:21;6.80;99.90
17994;DHT22;9122;48.406;9.984;2024-03-07T12:38:07;5.90;99.90
17994;DHT22;9122;48.406;9.984;2024-03-07T12:41:05;5.90;99.90
17994;DHT22;9122;48.406;9.984;2024-03-07T12:43:51;5.70;99.90
17994;DHT22;9122;48.406;9.984;2024-03-07T12:46:35;5.90;99.90
17994;DHT22;9122;48.406;9.984;2024-03-07T12:49:20;5.90;99.90
17994;DHT22;9122;48.406;9.984;2024-03-07T12:52:05;7.00;99.90
17994;DHT22;9122;48.406;9.984;2024-03-07T12:54:51;5.90;99.90
17994;DHT22;9122;48.406;9.984;2024-03-07T12:57:36;6.10;99.90
17994;DHT22;9122;48.406;9.984;2024-03-07T13:00:24;6.00;99.90
17994;DHT22;9122;48.406;9.984;2024-03-07T13:03:09;5.90;99.90
17994;DHT22;9122;48.406;9.984;2024-03-07T13:05:54;6.00;99.90
17994;DHT22;9122;48.406;9.984;2024-03-07T13:08:39;6.00;99.90
17994;DHT22;9122;48.406;9.984;2024-03-07T13:11:24;6.00;99.90
17994;DHT22;9122;48.406;9.984;2024-03-07T13:16:56;5.90;99.90
17994;DHT22;9122;48.406;9.984;2024-03-07T13:19:40;5.50;99.90
17994;DHT22;9122;48.406;9.984;2024-03-07T13:22:27;6.00;99.90
17994;DHT22;9122;48.406;9.984;2024-03-07T13:25:15;6.00;99.90
17994;DHT22;9122;48.406;9.984;2024-03-07T13:28:12;5.90;99.90
17994;DHT22;9122;48.406;9.984;2024-03-07T13:33:55;6.00;99.90
17994;DHT22;9122;48.406;9.984;2024-03-07T13:36:40;6.00;99.90
17994;DHT22;9122;48.406;9.984;2024-03-07T13:42:09;6.00;99.90
17994;DHT22;9122;48.406;9.984;2024-03-07T13:44:55;6.00;99.90
17994;DHT22;9122;48.406;9.984;2024-03-07T13:47:54;6.10;99.90
17994;DHT22;9122;48.406;9.984;2024-03-07T13:50:39;6.20;99.90
17994;DHT22;9122;48.406;9.984;2024-03-07T13:53:28;6.10;99.90
17994;DHT22;9122;48.406;9.984;2024-03-07T14:02:41;6.00;99.90
17994;DHT22;9122;48.406;9.984;2024-03-07T14:09:14;6.20;99.90
17994;DHT22;9122;48.406;9.984;2024-03-07T14:12:32;6.30;99.90
17994;DHT22;9122;48.406;9.984;2024-03-07T14:30:50;6.40;99.80
17994;DHT22;9122;48.406;9.984;2024-03-07T14:34:06;6.40;99.70
17994;DHT22;9122;48.406;9.984;2024-03-07T14:37:02;6.40;99.80
17994;DHT22;9122;48.406;9.984;2024-03-07T14:39:48;6.10;99.80
17994;DHT22;9122;48.406;9.984;2024-03-07T14:42:34;6.50;99.80
17994;DHT22;9122;48.406;9.984;2024-03-07T14:45:20;6.50;99.80
17994;DHT22;9122;48.406;9.984;2024-03-07T14:48:05;6.50;99.80
17994;DHT22;9122;48.406;9.984;2024-03-07T14:50:53;6.50;99.50
17994;DHT22;9122;48.406;9.984;2024-03-07T14:53:37;6.50;99.90
17994;DHT22;9122;48.406;9.984;2024-03-07T14:56:21;6.50;99.20
17994;DHT22;9122;48.406;9.984;2024-03-07T14:59:06;6.50;98.90
17994;DHT22;9122;48.406;9.984;2024-03-07T15:04:36;6.50;98.90
17994;DHT22;9122;48.406;9.984;2024-03-07T15:07:21;8.60;99.90
17994;DHT22;9122;48.406;9.984;2024-03-07T15:10:13;6.10;99.10
17994;DHT22;9122;48.406;9.984;2024-03-07T15:13:02;6.50;99.10
17994;DHT22;9122;48.406;9.984;2024-03-07T15:15:47;6.50;99.20
17994;DHT22;9122;48.406;9.984;2024-03-07T15:18:31;6.60;99.20
17994;DHT22;9122;48.406;9.984;2024-03-07T15:24:01;6.60;98.20
17994;DHT22;9122;48.406;9.984;2024-03-07T15:26:47;6.60;98.60
17994;DHT22;9122;48.406;9.984;2024-03-07T15:29:33;8.90;99.10
17994;DHT22;9122;48.406;9.984;2024-03-07T15:32:20;6.10;98.20
17994;DHT22;9122;48.406;9.984;2024-03-07T15:35:05;6.90;98.10
17994;DHT22;9122;48.406;9.984;2024-03-07T15:37:53;6.70;99.90
17994;DHT22;9122;48.406;9.984;2024-03-07T15:40:37;7.70;97.90
17994;DHT22;9122;48.406;9.984;2024-03-07T15:43:22;6.70;97.50
17994;DHT22;9122;48.406;9.984;2024-03-07T15:46:06;6.70;97.50
17994;DHT22;9122;48.406;9.984;2024-03-07T15:48:50;6.70;97.50
17994;DHT22;9122;48.406;9.984;2024-03-07T15:54:19;6.70;97.40
17994;DHT22;9122;48.406;9.984;2024-03-07T16:02:37;6.70;97.60
17994;DHT22;9122;48.406;9.984;2024-03-07T16:05:23;6.70;97.70
17994;DHT22;9122;48.406;9.984;2024-03-07T16:08:14;6.80;98.10
17994;DHT22;9122;48.406;9.984;2024-03-07T16:11:01;6.70;98.10
17994;DHT22;9122;48.406;9.984;2024-03-07T16:13:46;6.80;99.90
17994;DHT22;9122;48.406;9.984;2024-03-07T16:16:31;6.80;99.90
17994;DHT22;9122;48.406;9.984;2024-03-07T16:19:15;6.90;99.90
17994;DHT22;9122;48.406;9.984;2024-03-07T16:22:01;6.80;99.90
17994;DHT22;9122;48.406;9.984;2024-03-07T16:24:46;6.80;98.80
17994;DHT22;9122;48.406;9.984;2024-03-07T16:27:30;6.80;99.90
17994;DHT22;9122;48.406;9.984;2024-03-07T16:30:23;6.70;98.90
17994;DHT22;9122;48.406;9.984;2024-03-07T16:35:52;6.70;98.50
17994;DHT22;9122;48.406;9.984;2024-03-07T16:38:36;6.70;99.90
17994;DHT22;9122;48.406;9.984;2024-03-07T16:41:20;6.70;98.80
17994;DHT22;9122;48.406;9.984;2024-03-07T16:44:04;6.70;99.90
17994;DHT22;9122;48.406;9.984;2024-03-07T16:46:48;6.80;98.90
17994;DHT22;9122;48.406;9.984;2024-03-07T16:49:34;6.80;98.80
17994;DHT22;9122;48.406;9.984;2024-03-07T16:52:21;6.70;98.50
17994;DHT22;9122;48.406;9.984;2024-03-07T16:55:08;6.80;98.50
17994;DHT22;9122;48.406;9.984;2024-03-07T16:57:54;6.60;99.90
17994;DHT22;9122;48.406;9.984;2024-03-07T17:00:39;6.80;98.70
17994;DHT22;9122;48.406;9.984;2024-03-07T17:03:23;6.30;98.50
17994;DHT22;9122;48.406;9.984;2024-03-07T17:08:55;6.60;98.40
17994;DHT22;9122;48.406;9.984;2024-03-07T17:11:39;8.00;99.10
17994;DHT22;9122;48.406;9.984;2024-03-07T17:14:25;7.90;99.10
17994;DHT22;9122;48.406;9.984;2024-03-07T17:17:12;6.20;98.60
17994;DHT22;9122;48.406;9.984;2024-03-07T17:22:44;6.60;98.40
17994;DHT22;9122;48.406;9.984;2024-03-07T17:25:29;6.80;98.70
17994;DHT22;9122;48.406;9.984;2024-03-07T17:28:17;6.10;98.70
17994;DHT22;9122;48.406;9.984;2024-03-07T17:31:01;6.60;98.60
17994;DHT22;9122;48.406;9.984;2024-03-07T17:33:46;6.60;98.50
17994;DHT22;9122;48.406;9.984;2024-03-07T17:36:30;6.30;98.30
17994;DHT22;9122;48.406;9.984;2024-03-07T17:39:16;6.60;98.30
17994;DHT22;9122;48.406;9.984;2024-03-07T17:42:00;6.60;98.20
17994;DHT22;9122;48.406;9.984;2024-03-07T17:44:52;6.70;98.20
17994;DHT22;9122;48.406;9.984;2024-03-07T17:47:38;6.60;98.00
17994;DHT22;9122;48.406;9.984;2024-03-07T17:50:29;6.60;97.80
17994;DHT22;9122;48.406;9.984;2024-03-07T17:53:14;6.60;97.50
17994;DHT22;9122;48.406;9.984;2024-03-07T17:56:00;6.60;99.90
17994;DHT22;9122;48.406;9.984;2024-03-07T18:01:31;6.60;97.10
17994;DHT22;9122;48.406;9.984;2024-03-07T18:04:15;7.90;97.90
17994;DHT22;9122;48.406;9.984;2024-03-07T18:07:02;6.60;97.60
17994;DHT22;9122;48.406;9.984;2024-03-07T18:09:50;6.60;97.40
17994;DHT22;9122;48.406;9.984;2024-03-07T18:12:37;6.60;97.70
17994;DHT22;9122;48.406;9.984;2024-03-07T18:15:23;6.60;97.90
17994;DHT22;9122;48.406;9.984;2024-03-07T18:18:11;7.70;98.20
17994;DHT22;9122;48.406;9.984;2024-03-07T18:20:57;6.60;97.90
17994;DHT22;9122;48.406;9.984;2024-03-07T18:23:42;7.50;98.30
17994;DHT22;9122;48.406;9.984;2024-03-07T18:31:55;6.60;97.60
17994;DHT22;9122;48.406;9.984;2024-03-07T18:34:40;6.60;99.90
17994;DHT22;9122;48.406;9.984;2024-03-07T18:37:24;8.30;98.60
17994;DHT22;9122;48.406;9.984;2024-03-07T18:40:13;6.50;98.10
17994;DHT22;9122;48.406;9.984;2024-03-07T18:43:04;6.50;98.00
17994;DHT22;9122;48.406;9.984;2024-03-07T18:45:51;6.50;98.00
17994;DHT22;9122;48.406;9.984;2024-03-07T18:48:35;6.40;99.90
17994;DHT22;9122;48.406;9.984;2024-03-07T18:54:07;6.50;98.00
17994;DHT22;9122;48.406;9.984;2024-03-07T18:56:51;6.70;98.60
17994;DHT22;9122;48.406;9.984;2024-03-07T19:02:21;6.50;99.90
17994;DHT22;9122;48.406;9.984;2024-03-07T19:05:07;6.40;98.70
17994;DHT22;9122;48.406;9.984;2024-03-07T19:07:57;6.40;98.90
17994;DHT22;9122;48.406;9.984;2024-03-07T19:10:43;6.40;98.90
17994;DHT22;9122;48.406;9.984;2024-03-07T19:13:27;8.40;99.50
17994;DHT22;9122;48.406;9.984;2024-03-07T19:16:26;7.20;99.30
17994;DHT22;9122;48.406;9.984;2024-03-07T19:27:39;6.40;99.00
17994;DHT22;9122;48.406;9.984;2024-03-07T19:30:33;6.30;99.20
17994;DHT22;9122;48.406;9.984;2024-03-07T19:33:20;6.40;99.90
17994;DHT22;9122;48.406;9.984;2024-03-07T19:36:05;6.20;99.90
17994;DHT22;9122;48.406;9.984;2024-03-07T19:38:57;6.30;99.70
17994;DHT22;9122;48.406;9.984;2024-03-07T19:56:05;6.30;99.90
17994;DHT22;9122;48.406;9.984;2024-03-07T19:58:52;6.30;99.90
17994;DHT22;9122;48.406;9.984;2024-03-07T20:01:37;6.20;99.90
17994;DHT22;9122;48.406;9.984;2024-03-07T20:09:54;6.20;99.80
17994;DHT22;9122;48.406;9.984;2024-03-07T20:16:24;6.10;99.90
17994;DHT22;9122;48.406;9.984;2024-03-07T20:22:03;6.10;99.90
17994;DHT22;9122;48.406;9.984;2024-03-07T20:24:54;6.10;99.90
17994;DHT22;9122;48.406;9.984;2024-03-07T20:27:49;6.10;99.90
17994;DHT22;9122;48.406;9.984;2024-03-07T20:30:39;6.00;99.90
17994;DHT22;9122;48.406;9.984;2024-03-07T20:36:34;6.00;99.90
17994;DHT22;9122;48.406;9.984;2024-03-07T20:39:46;6.00;99.90
17994;DHT22;9122;48.406;9.984;2024-03-07T20:45:30;5.90;99.90
17994;DHT22;9122;48.406;9.984;2024-03-07T20:59:32;5.80;99.90
17994;DHT22;9122;48.406;9.984;2024-03-07T21:05:14;5.90;99.90
17994;DHT22;9122;48.406;9.984;2024-03-07T21:08:02;5.80;99.90
17994;DHT22;9122;48.406;9.984;2024-03-07T21:13:32;5.70;99.90
17994;DHT22;9122;48.406;9.984;2024-03-07T21:16:17;5.60;99.90
17994;DHT22;9122;48.406;9.984;2024-03-07T21:19:02;5.70;99.90
17994;DHT22;9122;48.406;9.984;2024-03-07T21:24:32;5.60;99.90
17994;DHT22;9122;48.406;9.984;2024-03-07T21:27:16;5.60;99.90
17994;DHT22;9122;48.406;9.984;2024-03-07T21:30:01;6.10;99.90
17994;DHT22;9122;48.406;9.984;2024-03-07T21:32:45;6.00;99.90
17994;DHT22;9122;48.406;9.984;2024-03-07T21:35:32;5.50;99.90
17994;DHT22;9122;48.406;9.984;2024-03-07T21:38:23;5.90;99.90